Time;durP1;ratioP1;P1;durP2;ratioP2;P2;SDS_P1;SDS_P2;PMS_P1;PMS_P2;Temp;Humidity;BMP_temperature;BMP_pressure;BME280_temperature;BME280_humidity;BME280_pressure;Samples;Min_cycle;Max_cycle;Signal;HPM_P1;HPM_P2
2022/12/08 00:02:02;;;;;;;15.93;9.03;;;1.20;99.90;;;;;;5037246;28;20173;-94
2022/12/08 00:04:27;;;;;;;17.07;10.73;;;1.20;99.90;;;;;;5036987;28;20430;-93
2022/12/08 00:09:40;;;;;;;14.47;8.07;;;1.20;99.90;;;;;;5051353;28;20225;-94
2022/12/08 00:12:11;;;;;;;19.20;9.93;;;1.30;99.90;;;;;;5036528;28;20539;-94
2022/12/08 00:14:39;;;;;;;13.77;7.93;;;1.30;99.90;;;;;;5036581;28;20432;-94
2022/12/08 00:17:06;;;;;;;16.00;7.50;;;1.30;99.90;;;;;;5036448;28;20439;-94
2022/12/08 00:19:32;;;;;;;14.40;7.63;;;1.10;99.90;;;;;;5036737;28;20420;-94
2022/12/08 00:22:02;;;;;;;14.80;8.63;;;1.40;99.90;;;;;;5036594;28;20418;-93
2022/12/08 00:24:33;;;;;;;12.70;8.17;;;1.40;99.90;;;;;;5036172;28;20787;-93
2022/12/08 00:27:00;;;;;;;13.40;6.57;;;1.40;99.90;;;;;;5032057;28;20428;-94
2022/12/08 00:29:25;;;;;;;21.07;9.93;;;1.40;99.90;;;;;;5029608;28;20416;-93
2022/12/08 00:31:51;;;;;;;15.20;9.37;;;1.40;99.90;;;;;;5035947;28;20530;-92
2022/12/08 00:34:16;;;;;;;13.40;8.60;;;1.40;99.90;;;;;;5019976;28;20287;-95
2022/12/08 00:36:43;;;;;;;15.60;9.30;;;1.50;99.90;;;;;;5036181;28;20191;-93
2022/12/08 00:39:09;;;;;;;12.53;6.93;;;1.50;99.90;;;;;;5035912;28;20181;-94
2022/12/08 00:44:19;;;;;;;11.43;7.07;;;1.50;99.90;;;;;;5045505;28;20446;-90
2022/12/08 00:46:46;;;;;;;15.03;9.47;;;1.50;99.90;;;;;;5036339;28;20454;-91
2022/12/08 00:49:11;;;;;;;11.97;9.10;;;1.50;99.90;;;;;;5036184;28;20171;-91
2022/12/08 00:52:21;;;;;;;13.90;9.13;;;1.50;99.90;;;;;;5046464;28;20431;-93
2022/12/08 00:54:46;;;;;;;9.10;6.37;;;1.60;99.90;;;;;;5061191;28;20181;-93
2022/12/08 00:57:11;;;;;;;12.20;7.30;;;1.50;99.90;;;;;;5038586;28;20424;-91
2022/12/08 00:59:37;;;;;;;11.50;8.47;;;1.60;99.90;;;;;;5036710;28;20419;-89
2022/12/08 01:02:02;;;;;;;11.10;7.30;;;1.60;99.90;;;;;;5036144;28;20179;-91
2022/12/08 01:04:28;;;;;;;13.07;8.53;;;1.70;99.90;;;;;;5035883;28;20182;-92
2022/12/08 01:06:53;;;;;;;16.27;9.40;;;1.70;99.90;;;;;;5035939;28;20186;-91
2022/12/08 01:09:19;;;;;;;15.83;9.30;;;1.70;99.90;;;;;;5044389;28;20177;-92
2022/12/08 01:11:45;;;;;;;10.03;6.93;;;1.80;99.90;;;;;;5049154;28;20178;-93
2022/12/08 01:14:11;;;;;;;12.57;8.50;;;1.80;99.90;;;;;;5043930;28;20186;-92
2022/12/08 01:16:39;;;;;;;12.90;7.93;;;1.80;99.90;;;;;;5046397;28;20459;-91
2022/12/08 01:19:04;;;;;;;12.03;7.63;;;1.80;99.90;;;;;;5042206;28;20489;-91
2022/12/08 01:21:30;;;;;;;15.43;9.53;;;1.80;99.90;;;;;;5037126;28;20400;-93
2022/12/08 01:23:57;;;;;;;14.93;8.57;;;1.80;99.90;;;;;;5039618;28;20656;-92
2022/12/08 01:26:23;;;;;;;11.10;8.67;;;1.80;99.90;;;;;;5039910;28;20260;-92
2022/12/08 01:28:49;;;;;;;13.70;7.90;;;1.90;99.90;;;;;;5027358;28;20850;-92
2022/12/08 01:31:18;;;;;;;15.57;8.37;;;1.90;99.90;;;;;;5019914;28;20209;-93
2022/12/08 01:33:44;;;;;;;12.07;7.93;;;1.90;99.90;;;;;;5019529;28;20300;-91
2022/12/08 01:36:24;;;;;;;12.27;8.93;;;1.90;99.90;;;;;;5019884;28;20438;-91
2022/12/08 01:38:50;;;;;;;13.57;8.37;;;1.90;99.90;;;;;;5023852;28;20177;-92
2022/12/08 01:41:19;;;;;;;12.93;7.93;;;2.00;99.90;;;;;;5039621;28;20440;-92
2022/12/08 01:44:00;;;;;;;15.97;9.13;;;2.00;99.90;;;;;;5039403;28;20423;-92
2022/12/08 01:46:28;;;;;;;9.40;6.90;;;2.00;99.90;;;;;;5039317;28;20435;-92
2022/12/08 01:49:16;;;;;;;12.50;7.80;;;2.10;99.90;;;;;;5039484;28;20487;-91
2022/12/08 01:51:46;;;;;;;14.50;8.80;;;2.10;99.90;;;;;;5038527;28;20517;-89
2022/12/08 01:54:13;;;;;;;12.97;8.50;;;2.10;99.90;;;;;;5055783;28;20446;-91
2022/12/08 01:56:57;;;;;;;18.47;9.60;;;2.20;99.90;;;;;;5039400;28;20419;-91
2022/12/08 01:59:24;;;;;;;11.43;8.37;;;2.20;99.90;;;;;;5038621;28;20418;-89
2022/12/08 02:01:50;;;;;;;13.33;8.77;;;2.20;99.90;;;;;;5039558;28;20420;-91
2022/12/08 02:04:16;;;;;;;18.57;10.47;;;2.20;99.90;;;;;;5039609;28;20436;-91
2022/12/08 02:06:43;;;;;;;15.40;8.97;;;2.20;99.90;;;;;;5039133;28;20426;-90
2022/12/08 02:09:09;;;;;;;13.10;9.10;;;2.20;99.90;;;;;;5038814;28;20186;-91
2022/12/08 02:11:35;;;;;;;13.13;8.40;;;2.10;99.90;;;;;;5038859;28;20430;-91
2022/12/08 02:14:03;;;;;;;11.00;7.57;;;2.10;99.90;;;;;;5039323;28;20518;-90
2022/12/08 02:16:35;;;;;;;11.37;7.10;;;2.10;99.90;;;;;;5038838;28;20626;-90
2022/12/08 02:19:17;;;;;;;12.50;8.93;;;2.10;99.90;;;;;;5055393;28;20420;-91
2022/12/08 02:22:00;;;;;;;13.77;8.43;;;2.10;99.90;;;;;;5039027;28;20424;-91
2022/12/08 02:24:39;;;;;;;11.63;8.03;;;2.10;99.90;;;;;;5038188;28;20423;-89
2022/12/08 02:27:37;;;;;;;12.77;7.37;;;2.10;99.90;;;;;;5038613;28;20413;-90
2022/12/08 02:30:28;;;;;;;11.63;8.10;;;2.10;99.90;;;;;;5008076;28;20423;-89
2022/12/08 02:33:25;;;;;;;9.47;7.40;;;2.00;99.90;;;;;;5037548;28;20481;-89
2022/12/08 02:36:31;;;;;;;11.93;7.50;;;2.00;99.90;;;;;;5038102;28;20470;-90
2022/12/08 02:39:02;;;;;;;12.47;6.93;;;2.00;99.90;;;;;;5054706;28;20422;-89
2022/12/08 02:41:50;;;;;;;15.63;7.30;;;2.00;99.90;;;;;;5055132;28;20415;-90
2022/12/08 02:44:39;;;;;;;9.47;6.83;;;2.00;99.90;;;;;;5038196;28;20416;-91
2022/12/08 02:47:18;;;;;;;9.97;6.47;;;1.90;99.90;;;;;;5037651;28;20425;-90
2022/12/08 02:49:43;;;;;;;10.90;7.00;;;1.90;99.90;;;;;;5038200;28;20465;-91
2022/12/08 02:52:12;;;;;;;10.47;7.60;;;2.00;99.90;;;;;;5038108;28;20448;-90
2022/12/08 02:54:47;;;;;;;10.43;7.10;;;2.00;99.90;;;;;;5054491;28;20185;-91
2022/12/08 02:57:24;;;;;;;10.83;7.23;;;2.00;99.90;;;;;;5038150;28;20429;-91
2022/12/08 02:59:50;;;;;;;11.30;6.90;;;2.10;99.90;;;;;;5054626;28;20438;-92
2022/12/08 03:02:24;;;;;;;8.87;7.93;;;2.10;99.90;;;;;;5054672;28;20426;-90
2022/12/08 03:05:14;;;;;;;11.30;7.03;;;2.20;99.90;;;;;;5054680;28;20186;-90
2022/12/08 03:08:05;;;;;;;11.10;8.27;;;2.20;99.90;;;;;;5054235;28;20412;-91
2022/12/08 03:11:02;;;;;;;9.83;7.00;;;2.20;99.90;;;;;;5037262;28;20792;-91
2022/12/08 03:13:46;;;;;;;13.17;8.47;;;2.20;99.90;;;;;;5021884;28;20984;-93
2022/12/08 03:16:16;;;;;;;12.00;7.37;;;2.20;99.90;;;;;;5055654;28;20404;-92
2022/12/08 03:18:50;;;;;;;13.77;7.90;;;2.30;99.90;;;;;;5037799;28;20420;-92
2022/12/08 03:21:18;;;;;;;9.63;6.50;;;2.30;99.90;;;;;;5038024;28;20412;-91
2022/12/08 03:23:46;;;;;;;9.70;6.07;;;2.30;99.90;;;;;;5037399;28;20424;-90
2022/12/08 03:26:33;;;;;;;7.20;4.37;;;2.30;99.90;;;;;;5037728;28;20435;-91
2022/12/08 03:28:59;;;;;;;9.20;6.10;;;2.30;99.90;;;;;;5037920;28;20422;-92
2022/12/08 03:31:27;;;;;;;11.27;6.47;;;2.30;99.90;;;;;;5037639;28;20427;-91
2022/12/08 03:33:55;;;;;;;11.70;7.40;;;2.30;99.90;;;;;;5037679;28;20233;-92
2022/12/08 03:36:22;;;;;;;8.00;4.77;;;2.30;99.90;;;;;;5037811;28;20472;-91
2022/12/08 03:38:51;;;;;;;11.30;5.50;;;2.30;99.90;;;;;;5037114;28;20428;-91
2022/12/08 03:41:17;;;;;;;8.80;4.87;;;2.30;99.90;;;;;;5037926;28;20413;-92
2022/12/08 03:43:51;;;;;;;6.47;4.27;;;2.40;99.90;;;;;;5037534;28;20932;-92
2022/12/08 03:46:19;;;;;;;9.30;4.50;;;2.40;99.90;;;;;;5037041;28;20412;-90
2022/12/08 03:48:45;;;;;;;8.73;5.20;;;2.40;99.90;;;;;;5037259;28;20513;-91
2022/12/08 03:51:11;;;;;;;6.37;3.40;;;2.40;99.90;;;;;;5037099;28;20808;-91
2022/12/08 03:53:37;;;;;;;7.17;4.70;;;2.40;99.90;;;;;;5036531;28;20474;-91
2022/12/08 03:56:17;;;;;;;7.67;3.60;;;2.40;99.90;;;;;;5036829;28;20451;-91
2022/12/08 03:58:43;;;;;;;5.67;3.60;;;2.40;99.90;;;;;;5053512;28;20179;-92
2022/12/08 04:01:09;;;;;;;5.03;3.67;;;2.30;99.90;;;;;;5036725;28;20505;-91
2022/12/08 04:03:35;;;;;;;11.93;4.67;;;2.30;99.90;;;;;;5036880;28;20239;-91
2022/12/08 04:06:00;;;;;;;4.50;3.47;;;2.30;99.90;;;;;;5036689;28;20637;-93
2022/12/08 04:08:26;;;;;;;5.93;3.20;;;2.30;99.90;;;;;;5036726;28;20266;-92
2022/12/08 04:10:52;;;;;;;4.77;2.57;;;2.30;99.90;;;;;;5036654;28;20261;-91
2022/12/08 04:13:18;;;;;;;5.50;3.20;;;2.30;99.90;;;;;;5037097;28;20581;-89
2022/12/08 04:15:45;;;;;;;3.33;2.23;;;2.30;99.90;;;;;;5036844;28;20420;-92
2022/12/08 04:18:11;;;;;;;5.47;3.50;;;2.30;99.90;;;;;;5036830;28;20201;-91
2022/12/08 04:20:44;;;;;;;5.73;3.53;;;2.40;99.90;;;;;;5036392;28;20427;-90
2022/12/08 04:23:10;;;;;;;4.60;3.00;;;2.30;99.90;;;;;;5037002;28;20627;-90
2022/12/08 04:26:33;;;;;;;5.27;2.90;;;2.30;99.90;;;;;;5043628;28;20416;-94
2022/12/08 04:28:58;;;;;;;4.37;2.33;;;2.30;99.90;;;;;;5038227;28;20427;-93
2022/12/08 04:31:47;;;;;;;2.80;1.77;;;2.40;99.90;;;;;;5044348;28;20408;-94
2022/12/08 04:34:33;;;;;;;4.23;1.70;;;2.30;99.90;;;;;;5041986;28;20251;-93
2022/12/08 04:36:59;;;;;;;2.60;1.77;;;2.30;99.90;;;;;;5036270;28;20942;-94
2022/12/08 04:39:24;;;;;;;3.73;2.00;;;2.30;99.90;;;;;;5036327;28;20471;-92
2022/12/08 04:41:50;;;;;;;3.23;2.43;;;2.30;99.90;;;;;;5036347;28;20219;-93
2022/12/08 04:44:15;;;;;;;4.13;2.23;;;2.30;99.90;;;;;;5036484;28;20209;-92
2022/12/08 04:46:41;;;;;;;3.43;1.50;;;2.30;99.90;;;;;;5036355;28;20182;-94
2022/12/08 04:49:06;;;;;;;2.77;2.13;;;2.30;99.90;;;;;;5036449;28;20237;-92
2022/12/08 04:51:32;;;;;;;2.50;1.97;;;2.30;99.90;;;;;;5036584;28;20264;-94
2022/12/08 04:53:57;;;;;;;1.67;1.37;;;2.30;99.90;;;;;;5036077;28;20217;-93
2022/12/08 04:56:23;;;;;;;3.37;1.37;;;2.30;99.90;;;;;;5037234;28;20180;-93
2022/12/08 04:58:48;;;;;;;1.80;1.03;;;2.30;99.90;;;;;;5040243;28;20185;-93
2022/12/08 05:01:14;;;;;;;2.00;0.83;;;2.30;99.90;;;;;;5040896;28;20578;-95
2022/12/08 05:03:39;;;;;;;2.70;1.87;;;2.30;99.90;;;;;;5040266;28;20569;-92
2022/12/08 05:06:05;;;;;;;1.87;1.30;;;2.30;99.90;;;;;;5040339;28;20183;-93
2022/12/08 05:08:31;;;;;;;2.63;1.80;;;2.30;99.90;;;;;;5039948;28;20201;-93
2022/12/08 05:11:10;;;;;;;4.23;1.70;;;2.30;99.90;;;;;;5040251;28;20427;-92
2022/12/08 05:13:36;;;;;;;2.23;1.40;;;2.20;99.90;;;;;;5039967;28;20341;-92
2022/12/08 05:16:04;;;;;;;4.20;2.17;;;2.30;99.90;;;;;;5040155;28;20448;-92
2022/12/08 05:18:32;;;;;;;4.20;1.93;;;2.30;99.90;;;;;;5040758;28;20209;-92
2022/12/08 05:20:58;;;;;;;2.80;1.23;;;2.30;99.90;;;;;;5040039;28;20542;-92
2022/12/08 05:23:24;;;;;;;2.47;2.07;;;2.30;99.90;;;;;;5039882;28;20873;-93
2022/12/08 05:25:49;;;;;;;2.80;1.90;;;2.30;99.90;;;;;;5039946;28;20407;-93
2022/12/08 05:28:15;;;;;;;3.87;3.10;;;2.30;99.90;;;;;;5039853;28;20175;-93
2022/12/08 05:30:40;;;;;;;3.90;2.27;;;2.30;99.90;;;;;;5039930;28;20173;-93
2022/12/08 05:33:06;;;;;;;3.03;2.10;;;2.30;99.90;;;;;;5039807;28;20201;-90
2022/12/08 05:35:31;;;;;;;3.33;1.60;;;2.30;99.90;;;;;;5039472;28;20775;-92
2022/12/08 05:37:57;;;;;;;3.23;2.20;;;2.30;99.90;;;;;;5039301;28;20183;-92
2022/12/08 05:40:26;;;;;;;4.17;1.83;;;2.30;99.90;;;;;;5039905;28;20634;-93
2022/12/08 05:42:54;;;;;;;6.60;2.60;;;2.20;99.90;;;;;;5040411;28;20648;-92
2022/12/08 05:45:23;;;;;;;2.83;1.60;;;2.30;99.90;;;;;;5040843;28;20502;-93
2022/12/08 05:47:49;;;;;;;3.90;2.30;;;2.20;99.90;;;;;;5040745;28;20427;-94
2022/12/08 05:50:20;;;;;;;2.80;1.60;;;2.20;99.90;;;;;;5041367;28;20854;-96
2022/12/08 05:52:46;;;;;;;2.10;1.37;;;2.20;99.90;;;;;;5040905;28;20399;-95
2022/12/08 05:55:11;;;;;;;3.30;1.80;;;2.40;99.90;;;;;;5041879;28;20428;-95
2022/12/08 05:57:43;;;;;;;2.40;1.80;;;2.20;99.90;;;;;;5042334;28;20180;-93
2022/12/08 06:00:16;;;;;;;2.20;1.77;;;2.10;99.90;;;;;;5041608;28;20173;-96
2022/12/08 06:02:42;;;;;;;2.93;2.20;;;2.10;99.90;;;;;;5041330;28;20939;-96
2022/12/08 06:05:11;;;;;;;2.93;1.47;;;2.10;99.90;;;;;;5041175;28;20420;-93
2022/12/08 06:07:37;;;;;;;3.00;2.17;;;2.10;99.90;;;;;;5041131;28;20246;-93
2022/12/08 06:10:06;;;;;;;2.37;2.00;;;2.10;99.90;;;;;;5045394;28;20432;-96
2022/12/08 06:12:32;;;;;;;2.23;1.50;;;2.10;99.90;;;;;;5045874;28;20210;-94
2022/12/08 06:14:57;;;;;;;3.00;1.40;;;2.10;99.90;;;;;;5045254;28;20467;-94
2022/12/08 06:17:23;;;;;;;2.07;1.27;;;2.20;99.90;;;;;;5045266;28;20184;-94
2022/12/08 06:19:48;;;;;;;1.93;0.90;;;2.10;99.90;;;;;;5045257;28;20689;-96
2022/12/08 06:22:14;;;;;;;2.77;1.10;;;2.10;99.90;;;;;;5044545;28;20228;-95
2022/12/08 06:24:39;;;;;;;1.43;1.00;;;2.10;99.90;;;;;;5045178;28;20181;-94
2022/12/08 06:27:05;;;;;;;1.17;0.40;;;2.20;99.90;;;;;;5046274;28;20174;-96
2022/12/08 06:29:31;;;;;;;1.57;0.73;;;2.20;99.90;;;;;;5047097;28;20173;-93
2022/12/08 06:31:56;;;;;;;1.77;0.90;;;2.20;99.90;;;;;;5045452;28;20171;-95
2022/12/08 06:34:22;;;;;;;1.83;0.97;;;2.20;99.90;;;;;;5046683;28;20231;-96
2022/12/08 06:36:48;;;;;;;1.10;0.90;;;2.20;99.90;;;;;;5047274;28;20173;-94
2022/12/08 06:39:16;;;;;;;1.00;0.53;;;2.20;99.90;;;;;;5047405;28;20247;-96
2022/12/08 06:44:32;;;;;;;1.80;0.50;;;2.20;99.90;;;;;;5065433;28;20429;-93
2022/12/08 06:46:58;;;;;;;1.97;0.90;;;2.20;99.90;;;;;;5046937;28;20421;-95
2022/12/08 06:49:23;;;;;;;4.00;1.70;;;2.30;99.90;;;;;;5047360;28;20633;-96
2022/12/08 06:51:49;;;;;;;2.70;1.30;;;2.20;99.90;;;;;;5046629;28;20607;-94
2022/12/08 06:54:14;;;;;;;2.17;1.30;;;2.10;99.90;;;;;;5045619;28;20619;-96
2022/12/08 06:56:43;;;;;;;2.80;1.77;;;2.30;99.90;;;;;;5048937;28;20174;-92
2022/12/08 06:59:09;;;;;;;1.50;1.07;;;2.30;99.90;;;;;;5052245;28;20308;-94
2022/12/08 07:01:34;;;;;;;1.60;0.63;;;2.30;99.90;;;;;;5054250;28;20416;-95
2022/12/08 07:04:00;;;;;;;3.30;1.60;;;2.30;99.90;;;;;;5048520;28;20182;-93
2022/12/08 07:06:25;;;;;;;2.73;1.30;;;2.20;99.90;;;;;;5046722;28;20219;-93
2022/12/08 07:08:51;;;;;;;2.40;1.73;;;2.20;99.90;;;;;;5048090;28;20189;-93
2022/12/08 07:11:17;;;;;;;2.03;1.50;;;2.30;99.90;;;;;;5045187;28;20174;-93
2022/12/08 07:13:43;;;;;;;2.90;2.00;;;2.30;99.90;;;;;;5046596;28;20213;-96
2022/12/08 07:16:10;;;;;;;2.37;1.43;;;2.30;99.90;;;;;;5046535;28;20216;-94
2022/12/08 07:18:37;;;;;;;3.07;1.70;;;2.30;99.90;;;;;;5045424;28;20949;-93
2022/12/08 07:21:09;;;;;;;3.80;2.40;;;2.30;99.90;;;;;;5041534;28;20408;-93
2022/12/08 07:23:35;;;;;;;3.10;1.60;;;2.20;99.90;;;;;;5043962;28;20420;-94
2022/12/08 07:26:03;;;;;;;4.43;2.13;;;2.30;99.90;;;;;;5041494;28;20515;-94
2022/12/08 07:28:33;;;;;;;3.97;2.70;;;2.30;99.90;;;;;;5040122;28;20410;-93
2022/12/08 07:30:59;;;;;;;2.83;2.10;;;2.30;99.90;;;;;;5038086;28;20489;-92
2022/12/08 07:33:25;;;;;;;2.90;2.40;;;2.30;99.90;;;;;;5038157;28;20460;-95
2022/12/08 07:36:02;;;;;;;4.27;3.03;;;2.20;99.90;;;;;;5038047;28;20460;-93
2022/12/08 07:38:27;;;;;;;2.70;1.80;;;2.20;99.90;;;;;;5037719;28;20420;-92
2022/12/08 07:40:53;;;;;;;3.13;1.73;;;2.20;99.90;;;;;;5037498;28;20770;-93
2022/12/08 07:43:19;;;;;;;3.27;2.30;;;2.00;99.90;;;;;;5039871;28;20181;-92
2022/12/08 07:45:45;;;;;;;5.43;2.23;;;2.00;99.90;;;;;;5038031;28;20250;-94
2022/12/08 07:48:11;;;;;;;3.07;2.17;;;2.00;99.90;;;;;;5038135;28;20425;-92
2022/12/08 07:50:37;;;;;;;3.47;1.70;;;1.90;99.90;;;;;;5037745;28;20406;-93
2022/12/08 07:53:03;;;;;;;4.83;2.70;;;2.00;99.90;;;;;;5037294;28;20213;-93
2022/12/08 07:55:28;;;;;;;4.40;3.13;;;2.10;99.90;;;;;;5038032;28;20499;-93
2022/12/08 07:57:54;;;;;;;4.27;3.47;;;2.00;99.90;;;;;;5037776;28;20180;-92
2022/12/08 08:00:19;;;;;;;3.20;1.40;;;2.00;99.90;;;;;;5037650;28;20227;-92
2022/12/08 08:02:45;;;;;;;3.93;3.03;;;2.00;99.90;;;;;;5037576;28;20223;-91
2022/12/08 08:05:11;;;;;;;4.03;2.60;;;2.10;99.90;;;;;;5037841;28;20427;-94
2022/12/08 08:07:38;;;;;;;5.67;2.80;;;2.10;99.90;;;;;;5037428;28;20198;-94
2022/12/08 08:10:05;;;;;;;8.50;3.73;;;2.10;99.90;;;;;;5037877;28;20454;-91
2022/12/08 08:12:31;;;;;;;6.37;3.97;;;2.10;99.90;;;;;;5037358;28;20463;-93
2022/12/08 08:14:57;;;;;;;6.13;3.20;;;2.00;99.90;;;;;;5037346;28;20926;-94
2022/12/08 08:17:22;;;;;;;6.73;3.60;;;2.10;99.90;;;;;;5037604;28;20429;-93
2022/12/08 08:19:48;;;;;;;4.10;2.47;;;2.10;99.90;;;;;;5037091;28;20446;-92
2022/12/08 08:22:14;;;;;;;6.10;3.40;;;2.10;99.90;;;;;;5037057;28;20636;-91
2022/12/08 08:24:39;;;;;;;5.47;3.93;;;2.10;99.90;;;;;;5037192;28;20626;-93
2022/12/08 08:27:05;;;;;;;7.03;4.20;;;2.10;99.90;;;;;;5037815;28;20272;-91
2022/12/08 08:29:30;;;;;;;4.33;2.97;;;2.20;99.90;;;;;;5037037;28;20212;-91
2022/12/08 08:32:02;;;;;;;7.87;4.03;;;2.20;99.90;;;;;;5049539;28;20199;-96
2022/12/08 08:37:41;;;;;;;4.57;3.50;;;2.10;99.90;;;;;;5379429;22;20490;-94
2022/12/08 08:40:36;;;;;;;5.30;3.53;;;2.10;99.90;;;;;;5043813;28;20872;-93
2022/12/08 08:43:04;;;;;;;4.43;4.03;;;2.10;99.90;;;;;;5063675;28;20424;-95
2022/12/08 08:45:33;;;;;;;5.97;3.93;;;2.20;99.90;;;;;;5025205;28;20488;-93
2022/12/08 08:47:59;;;;;;;5.57;4.47;;;2.20;99.90;;;;;;5036696;28;20427;-92
2022/12/08 08:50:25;;;;;;;7.30;4.57;;;2.10;99.90;;;;;;5037281;28;20418;-92
2022/12/08 08:52:50;;;;;;;7.03;4.87;;;2.10;99.90;;;;;;5037069;28;20244;-93
2022/12/08 08:55:16;;;;;;;6.10;3.93;;;2.20;99.90;;;;;;5036895;28;20416;-94
2022/12/08 08:57:42;;;;;;;4.43;3.83;;;2.20;99.90;;;;;;5036806;28;20173;-88
2022/12/08 09:00:10;;;;;;;5.13;4.30;;;2.30;99.90;;;;;;5036855;28;20233;-93
2022/12/08 09:02:37;;;;;;;6.37;3.90;;;2.20;99.90;;;;;;5036719;28;20212;-94
2022/12/08 09:05:03;;;;;;;7.27;4.70;;;2.20;99.90;;;;;;5036340;28;20442;-93
2022/12/08 09:07:29;;;;;;;6.40;5.33;;;2.20;99.90;;;;;;5036421;28;20448;-89
2022/12/08 09:09:55;;;;;;;7.30;5.53;;;2.20;99.90;;;;;;5036916;28;20416;-90
2022/12/08 09:12:21;;;;;;;8.07;5.33;;;2.20;99.90;;;;;;5054166;28;20202;-95
2022/12/08 09:14:46;;;;;;;7.33;5.97;;;2.20;99.90;;;;;;5053834;28;20939;-91
2022/12/08 09:17:13;;;;;;;8.70;5.97;;;2.20;99.90;;;;;;5053121;28;20180;-93
2022/12/08 09:19:39;;;;;;;7.77;5.10;;;2.30;99.90;;;;;;5044965;28;20191;-92
2022/12/08 09:22:04;;;;;;;6.97;4.93;;;2.30;99.90;;;;;;5060843;28;20452;-93
2022/12/08 09:24:30;;;;;;;8.90;5.40;;;2.40;99.90;;;;;;5056631;28;20177;-93
2022/12/08 09:26:55;;;;;;;6.90;4.60;;;2.30;99.90;;;;;;5055727;28;20180;-92
2022/12/08 09:29:21;;;;;;;6.70;4.47;;;2.30;99.90;;;;;;5073376;28;20617;-91
2022/12/08 09:31:47;;;;;;;9.33;5.60;;;2.30;99.90;;;;;;5038088;28;20257;-91
2022/12/08 09:34:12;;;;;;;8.83;6.70;;;2.30;99.90;;;;;;5036579;28;20210;-88
2022/12/08 09:36:38;;;;;;;9.17;6.43;;;2.20;99.90;;;;;;5034771;28;20233;-92
2022/12/08 09:39:04;;;;;;;10.87;6.90;;;2.10;99.90;;;;;;5035649;28;20452;-90
2022/12/08 09:41:44;;;;;;;10.50;6.60;;;2.10;99.90;;;;;;5035626;28;20420;-91
2022/12/08 09:44:31;;;;;;;10.83;7.40;;;2.30;99.90;;;;;;5058447;28;20165;-92
2022/12/08 09:46:59;;;;;;;9.40;7.10;;;2.40;99.90;;;;;;5039756;28;20431;-91
2022/12/08 09:49:37;;;;;;;8.27;5.70;;;2.50;99.90;;;;;;5039374;28;20420;-92
2022/12/08 09:52:04;;;;;;;8.87;5.33;;;2.70;99.90;;;;;;5055043;28;20424;-94
2022/12/08 09:54:34;;;;;;;7.27;4.83;;;2.70;99.90;;;;;;5039030;28;20507;-89
2022/12/08 09:57:04;;;;;;;8.60;5.33;;;2.60;99.90;;;;;;5056880;28;20416;-92
2022/12/08 09:59:33;;;;;;;8.53;5.87;;;2.70;99.90;;;;;;5039068;28;20416;-91
2022/12/08 10:01:59;;;;;;;9.23;5.20;;;2.60;99.90;;;;;;5039007;28;20916;-90
2022/12/08 10:04:31;;;;;;;9.30;5.63;;;2.70;99.90;;;;;;5045670;28;20422;-92
2022/12/08 10:07:19;;;;;;;6.77;2.80;;;2.70;99.90;;;;;;5050734;28;20424;-93
2022/12/08 10:10:04;;;;;;;4.83;3.23;;;2.70;99.90;;;;;;5025738;28;20924;-92
2022/12/08 10:12:34;;;;;;;6.83;4.80;;;2.70;99.90;;;;;;5037050;28;20882;-92
2022/12/08 10:15:37;;;;;;;5.10;3.43;;;2.70;99.90;;;;;;5045878;28;20425;-91
2022/12/08 10:18:30;;;;;;;2.20;1.80;;;2.60;99.90;;;;;;5050359;28;20412;-95
2022/12/08 10:21:10;;;;;;;2.30;1.03;;;2.60;99.90;;;;;;5040454;28;20455;-92
2022/12/08 10:23:41;;;;;;;1.60;1.43;;;2.60;99.90;;;;;;5034755;28;20419;-93
2022/12/08 10:26:13;;;;;;;2.20;1.00;;;2.60;99.90;;;;;;5048880;28;20435;-93
2022/12/08 10:28:39;;;;;;;2.60;1.23;;;2.60;99.90;;;;;;5064135;28;20409;-94
2022/12/08 10:31:04;;;;;;;2.70;1.47;;;2.90;99.90;;;;;;5040783;28;20424;-94
2022/12/08 10:33:31;;;;;;;1.80;0.97;;;3.00;99.90;;;;;;5046985;28;20202;-94
2022/12/08 10:36:01;;;;;;;3.07;2.57;;;3.20;99.90;;;;;;5026934;28;20226;-95
2022/12/08 10:38:35;;;;;;;5.80;2.63;;;3.10;99.90;;;;;;5019344;28;20511;-94
2022/12/08 10:41:09;;;;;;;5.50;2.57;;;3.00;99.90;;;;;;5022159;28;20456;-93
2022/12/08 10:43:45;;;;;;;4.97;2.77;;;2.90;99.90;;;;;;5036298;28;20433;-94
2022/12/08 10:46:25;;;;;;;6.80;2.80;;;2.90;99.90;;;;;;5019930;28;20417;-93
2022/12/08 10:49:15;;;;;;;8.00;3.37;;;2.60;99.90;;;;;;5018845;28;20475;-92
2022/12/08 10:51:42;;;;;;;5.20;3.67;;;2.50;99.90;;;;;;5022801;28;20414;-96
2022/12/08 10:54:37;;;;;;;5.70;2.70;;;2.60;99.90;;;;;;5049264;28;20496;-93
2022/12/08 10:59:44;;;;;;;5.27;2.77;;;2.60;99.90;;;;;;5476834;22;20484;-93
2022/12/08 11:02:17;;;;;;;4.80;3.37;;;3.10;99.90;;;;;;5046079;28;20452;-94
2022/12/08 11:04:43;;;;;;;4.53;2.93;;;2.60;99.90;;;;;;5030975;28;20562;-92
2022/12/08 11:07:12;;;;;;;5.17;3.17;;;2.60;99.90;;;;;;5039546;28;20460;-93
2022/12/08 11:09:46;;;;;;;3.03;2.40;;;2.70;99.90;;;;;;5025823;28;20174;-95
2022/12/08 11:12:14;;;;;;;3.87;2.10;;;2.90;99.90;;;;;;5043725;28;21127;-92
2022/12/08 11:14:42;;;;;;;3.27;1.90;;;2.80;99.90;;;;;;5036295;28;20949;-94
2022/12/08 11:17:13;;;;;;;3.10;1.40;;;2.80;99.90;;;;;;5049586;28;20413;-93
2022/12/08 11:19:45;;;;;;;2.40;1.30;;;2.80;99.90;;;;;;5037205;28;20780;-92
2022/12/08 11:22:37;;;;;;;1.80;1.30;;;2.90;99.90;;;;;;5051965;28;20556;-90
2022/12/08 11:25:39;;;;;;;2.10;1.20;;;3.10;99.90;;;;;;5056234;28;20435;-90
2022/12/08 11:28:09;;;;;;;2.30;0.80;;;3.40;99.90;;;;;;5056034;28;20439;-92
2022/12/08 11:30:39;;;;;;;1.00;0.90;;;3.70;99.90;;;;;;5053707;28;20430;-92
2022/12/08 11:33:18;;;;;;;1.53;0.53;;;3.60;99.90;;;;;;5034767;28;20472;-91
2022/12/08 11:35:59;;;;;;;1.03;0.80;;;3.60;99.90;;;;;;5031212;28;20419;-84
2022/12/08 11:38:26;;;;;;;2.57;0.83;;;3.70;99.90;;;;;;5022054;28;20786;-85
2022/12/08 11:41:09;;;;;;;1.60;0.90;;;3.70;99.90;;;;;;5013855;28;20519;-80
2022/12/08 11:43:34;;;;;;;1.63;1.07;;;3.60;99.90;;;;;;5014237;28;20421;-81
2022/12/08 11:46:14;;;;;;;2.90;1.23;;;3.60;99.90;;;;;;5014359;28;20887;-81
2022/12/08 11:48:57;;;;;;;2.30;1.13;;;3.50;99.90;;;;;;5013953;28;20170;-80
2022/12/08 11:51:45;;;;;;;0.63;0.30;;;3.50;99.90;;;;;;5013610;28;20410;-80
2022/12/08 11:54:19;;;;;;;1.10;0.70;;;4.10;99.90;;;;;;5013592;28;20518;-80
2022/12/08 11:56:51;;;;;;;2.10;0.73;;;4.20;99.90;;;;;;5052981;28;20413;-80
2022/12/08 11:59:25;;;;;;;1.70;0.73;;;4.60;99.90;;;;;;5053046;28;20523;-80
2022/12/08 12:01:50;;;;;;;1.40;0.60;;;4.00;99.90;;;;;;5053196;28;20418;-80
2022/12/08 12:04:41;;;;;;;1.70;0.77;;;3.80;99.90;;;;;;5053359;28;20413;-81
2022/12/08 12:07:28;;;;;;;1.00;0.30;;;3.60;99.90;;;;;;5052070;28;20181;-80
2022/12/08 12:10:25;;;;;;;0.80;0.40;;;3.60;99.90;;;;;;5046497;28;20415;-81
2022/12/08 12:12:58;;;;;;;0.63;0.27;;;3.40;99.90;;;;;;5033583;28;20472;-80
2022/12/08 12:15:57;;;;;;;2.07;0.30;;;3.30;99.90;;;;;;5034493;28;20479;-81
2022/12/08 12:18:29;;;;;;;1.07;0.70;;;3.20;99.90;;;;;;5032707;28;20430;-80
2022/12/08 12:21:05;;;;;;;0.87;0.60;;;3.10;99.90;;;;;;5030674;28;20401;-81
2022/12/08 12:23:53;;;;;;;0.70;0.40;;;2.90;99.90;;;;;;5030237;28;20948;-81
2022/12/08 12:26:24;;;;;;;1.00;0.43;;;2.90;99.90;;;;;;5030995;28;20420;-81
2022/12/08 12:28:59;;;;;;;2.17;0.60;;;2.90;99.90;;;;;;5032374;28;20417;-80
2022/12/08 12:31:32;;;;;;;1.47;0.60;;;2.90;99.90;;;;;;5031754;28;20409;-79
2022/12/08 12:34:30;;;;;;;4.43;0.87;;;2.80;99.90;;;;;;5029897;28;20508;-80
2022/12/08 12:37:09;;;;;;;0.87;0.40;;;2.80;99.90;;;;;;5029517;28;20409;-80
2022/12/08 12:40:01;;;;;;;0.90;0.37;;;2.90;99.90;;;;;;5025306;28;20448;-80
2022/12/08 12:42:40;;;;;;;1.67;0.83;;;3.00;99.90;;;;;;5031913;28;20858;-80
2022/12/08 12:45:20;;;;;;;1.60;0.53;;;3.00;99.90;;;;;;5031940;28;20917;-80
2022/12/08 12:47:55;;;;;;;0.77;0.50;;;3.00;99.90;;;;;;5032126;28;20410;-79
2022/12/08 12:50:32;;;;;;;1.17;0.50;;;2.90;99.90;;;;;;5031838;28;20421;-79
2022/12/08 12:53:18;;;;;;;1.10;0.57;;;3.00;99.90;;;;;;5031510;28;20468;-80
2022/12/08 12:55:55;;;;;;;2.00;1.10;;;3.10;99.90;;;;;;5019201;28;20556;-79
2022/12/08 12:58:27;;;;;;;2.20;1.00;;;3.20;99.90;;;;;;5031740;28;20422;-80
2022/12/08 13:01:13;;;;;;;2.83;1.33;;;3.30;99.90;;;;;;5032053;28;20412;-80
2022/12/08 13:03:46;;;;;;;1.60;0.60;;;3.30;99.90;;;;;;5031391;28;20787;-80
2022/12/08 13:06:14;;;;;;;2.90;1.57;;;3.30;99.90;;;;;;5029459;28;20422;-80
2022/12/08 13:08:53;;;;;;;1.63;0.60;;;3.30;99.90;;;;;;5031849;28;20415;-80
2022/12/08 13:11:21;;;;;;;1.97;0.90;;;3.30;99.90;;;;;;5030569;28;20424;-80
2022/12/08 13:14:05;;;;;;;1.43;0.93;;;3.40;99.90;;;;;;5031831;28;20474;-80
2022/12/08 13:16:33;;;;;;;3.40;0.70;;;3.40;99.90;;;;;;5028726;28;20773;-81
2022/12/08 13:19:02;;;;;;;1.53;0.80;;;3.40;99.90;;;;;;5031317;28;20405;-81
2022/12/08 13:21:34;;;;;;;2.00;0.80;;;3.40;99.90;;;;;;5026885;28;20466;-80
2022/12/08 13:24:09;;;;;;;2.93;0.97;;;3.40;99.90;;;;;;5034432;28;20422;-80
2022/12/08 13:26:47;;;;;;;2.63;1.03;;;3.50;99.90;;;;;;5033609;28;20416;-81
2022/12/08 13:29:23;;;;;;;1.97;0.90;;;3.50;99.90;;;;;;5033536;28;20752;-80
2022/12/08 13:31:56;;;;;;;1.73;0.97;;;3.50;99.90;;;;;;5035576;28;20422;-80